sensor_id;sensor_type;location;lat;lon;timestamp;temperature;humidity
19037;DHT22;9651;49.138;8.900;2023-03-03T00:03:27;1.90;99.90
19037;DHT22;9651;49.138;8.900;2023-03-03T00:07:29;1.80;99.90
19037;DHT22;9651;49.138;8.900;2023-03-03T00:11:32;1.80;99.90
19037;DHT22;9651;49.138;8.900;2023-03-03T00:15:35;1.80;99.90
19037;DHT22;9651;49.138;8.900;2023-03-03T00:19:38;1.90;99.90
19037;DHT22;9651;49.138;8.900;2023-03-03T00:23:40;1.90;99.90
19037;DHT22;9651;49.138;8.900;2023-03-03T00:27:44;1.80;99.90
19037;DHT22;9651;49.138;8.900;2023-03-03T00:31:47;1.90;99.90
19037;DHT22;9651;49.138;8.900;2023-03-03T00:35:49;1.80;99.90
19037;DHT22;9651;49.138;8.900;2023-03-03T00:39:51;1.80;99.90
19037;DHT22;9651;49.138;8.900;2023-03-03T00:43:54;1.70;99.90
19037;DHT22;9651;49.138;8.900;2023-03-03T00:47:57;1.60;99.90
19037;DHT22;9651;49.138;8.900;2023-03-03T00:51:58;1.50;99.90
19037;DHT22;9651;49.138;8.900;2023-03-03T00:56:01;1.50;99.90
19037;DHT22;9651;49.138;8.900;2023-03-03T01:00:05;1.40;99.90
19037;DHT22;9651;49.138;8.900;2023-03-03T01:04:08;1.40;99.90
19037;DHT22;9651;49.138;8.900;2023-03-03T01:08:10;1.40;99.90
19037;DHT22;9651;49.138;8.900;2023-03-03T01:12:12;1.40;99.90
19037;DHT22;9651;49.138;8.900;2023-03-03T01:16:15;1.40;99.90
19037;DHT22;9651;49.138;8.900;2023-03-03T01:20:17;1.40;99.90
19037;DHT22;9651;49.138;8.900;2023-03-03T01:24:19;1.30;99.90
19037;DHT22;9651;49.138;8.900;2023-03-03T01:28:21;1.20;99.90
19037;DHT22;9651;49.138;8.900;2023-03-03T01:32:25;1.20;99.90
19037;DHT22;9651;49.138;8.900;2023-03-03T01:36:27;1.20;99.90
19037;DHT22;9651;49.138;8.900;2023-03-03T01:40:30;1.20;99.90
19037;DHT22;9651;49.138;8.900;2023-03-03T01:44:32;1.00;99.90
19037;DHT22;9651;49.138;8.900;2023-03-03T01:48:36;1.00;99.90
19037;DHT22;9651;49.138;8.900;2023-03-03T01:52:42;0.90;99.90
19037;DHT22;9651;49.138;8.900;2023-03-03T01:56:45;0.90;99.90
19037;DHT22;9651;49.138;8.900;2023-03-03T02:00:50;0.90;99.90
19037;DHT22;9651;49.138;8.900;2023-03-03T02:04:55;0.90;99.90
19037;DHT22;9651;49.138;8.900;2023-03-03T02:09:01;0.90;99.90
19037;DHT22;9651;49.138;8.900;2023-03-03T02:13:04;0.80;99.90
19037;DHT22;9651;49.138;8.900;2023-03-03T02:17:06;0.80;99.90
19037;DHT22;9651;49.138;8.900;2023-03-03T02:21:12;0.80;99.90
19037;DHT22;9651;49.138;8.900;2023-03-03T02:25:21;0.80;99.90
19037;DHT22;9651;49.138;8.900;2023-03-03T02:29:27;0.80;99.90
19037;DHT22;9651;49.138;8.900;2023-03-03T02:33:29;0.80;99.90
19037;DHT22;9651;49.138;8.900;2023-03-03T02:37:31;0.80;99.90
19037;DHT22;9651;49.138;8.900;2023-03-03T02:41:35;0.70;99.90
19037;DHT22;9651;49.138;8.900;2023-03-03T02:45:43;0.60;99.90
19037;DHT22;9651;49.138;8.900;2023-03-03T02:49:46;0.50;99.90
19037;DHT22;9651;49.138;8.900;2023-03-03T02:53:48;0.40;99.90
19037;DHT22;9651;49.138;8.900;2023-03-03T02:57:50;0.40;99.90
19037;DHT22;9651;49.138;8.900;2023-03-03T03:01:53;0.40;99.90
19037;DHT22;9651;49.138;8.900;2023-03-03T03:05:56;0.40;99.90
19037;DHT22;9651;49.138;8.900;2023-03-03T03:09:59;0.30;99.90
19037;DHT22;9651;49.138;8.900;2023-03-03T03:14:05;0.30;99.90
19037;DHT22;9651;49.138;8.900;2023-03-03T03:18:09;0.20;99.90
19037;DHT22;9651;49.138;8.900;2023-03-03T03:22:11;0.20;99.90
19037;DHT22;9651;49.138;8.900;2023-03-03T03:26:13;0.20;99.90
19037;DHT22;9651;49.138;8.900;2023-03-03T03:30:16;0.10;99.90
19037;DHT22;9651;49.138;8.900;2023-03-03T03:34:22;0.10;99.90
19037;DHT22;9651;49.138;8.900;2023-03-03T03:38:26;0.00;99.90
19037;DHT22;9651;49.138;8.900;2023-03-03T03:42:29;-0.10;99.90
19037;DHT22;9651;49.138;8.900;2023-03-03T03:46:31;-0.10;99.90
19037;DHT22;9651;49.138;8.900;2023-03-03T03:50:35;-0.10;99.90
19037;DHT22;9651;49.138;8.900;2023-03-03T03:54:38;-0.10;99.90
19037;DHT22;9651;49.138;8.900;2023-03-03T03:58:40;-0.20;99.90
19037;DHT22;9651;49.138;8.900;2023-03-03T04:02:44;-0.20;99.90
19037;DHT22;9651;49.138;8.900;2023-03-03T04:06:50;-0.20;99.90
19037;DHT22;9651;49.138;8.900;2023-03-03T04:10:53;-0.20;99.90
19037;DHT22;9651;49.138;8.900;2023-03-03T04:14:55;-0.20;99.90
19037;DHT22;9651;49.138;8.900;2023-03-03T04:18:58;-0.20;99.90
19037;DHT22;9651;49.138;8.900;2023-03-03T04:23:02;-0.20;99.90
19037;DHT22;9651;49.138;8.900;2023-03-03T04:27:06;-0.20;99.90
19037;DHT22;9651;49.138;8.900;2023-03-03T04:31:08;-0.20;99.90
19037;DHT22;9651;49.138;8.900;2023-03-03T04:35:10;-0.30;99.90
19037;DHT22;9651;49.138;8.900;2023-03-03T04:39:16;-0.30;99.90
19037;DHT22;9651;49.138;8.900;2023-03-03T04:43:18;-0.40;99.90
19037;DHT22;9651;49.138;8.900;2023-03-03T04:47:21;-0.60;99.90
19037;DHT22;9651;49.138;8.900;2023-03-03T04:51:23;-0.50;99.90
19037;DHT22;9651;49.138;8.900;2023-03-03T04:55:26;-0.50;99.90
19037;DHT22;9651;49.138;8.900;2023-03-03T04:59:29;-0.50;99.90
19037;DHT22;9651;49.138;8.900;2023-03-03T05:03:31;-0.60;99.90
19037;DHT22;9651;49.138;8.900;2023-03-03T05:07:34;-0.60;99.90
19037;DHT22;9651;49.138;8.900;2023-03-03T05:11:37;-0.50;99.90
19037;DHT22;9651;49.138;8.900;2023-03-03T05:15:39;-0.40;99.90
19037;DHT22;9651;49.138;8.900;2023-03-03T05:19:41;-0.30;99.90
19037;DHT22;9651;49.138;8.900;2023-03-03T05:23:43;-0.20;99.90
19037;DHT22;9651;49.138;8.900;2023-03-03T05:27:46;-0.10;99.90
19037;DHT22;9651;49.138;8.900;2023-03-03T05:31:48;-0.10;99.90
19037;DHT22;9651;49.138;8.900;2023-03-03T05:35:53;0.00;99.90
19037;DHT22;9651;49.138;8.900;2023-03-03T05:39:55;0.00;99.90
19037;DHT22;9651;49.138;8.900;2023-03-03T05:43:58;0.10;99.90
19037;DHT22;9651;49.138;8.900;2023-03-03T05:48:00;0.20;99.90
19037;DHT22;9651;49.138;8.900;2023-03-03T05:52:03;0.20;99.90
19037;DHT22;9651;49.138;8.900;2023-03-03T05:56:05;0.30;99.90
19037;DHT22;9651;49.138;8.900;2023-03-03T06:00:10;0.30;99.90
19037;DHT22;9651;49.138;8.900;2023-03-03T06:04:15;0.30;99.90
19037;DHT22;9651;49.138;8.900;2023-03-03T06:08:17;0.30;99.90
19037;DHT22;9651;49.138;8.900;2023-03-03T06:12:19;0.30;99.90
19037;DHT22;9651;49.138;8.900;2023-03-03T06:16:23;0.40;99.90
19037;DHT22;9651;49.138;8.900;2023-03-03T06:20:25;0.50;99.90
19037;DHT22;9651;49.138;8.900;2023-03-03T06:24:26;0.50;99.90
19037;DHT22;9651;49.138;8.900;2023-03-03T06:28:29;0.60;99.90
19037;DHT22;9651;49.138;8.900;2023-03-03T06:32:33;0.60;99.90
19037;DHT22;9651;49.138;8.900;2023-03-03T06:36:35;0.70;99.90
19037;DHT22;9651;49.138;8.900;2023-03-03T06:40:37;0.80;99.90
19037;DHT22;9651;49.138;8.900;2023-03-03T06:44:39;0.90;99.90
19037;DHT22;9651;49.138;8.900;2023-03-03T06:48:42;1.00;99.90
19037;DHT22;9651;49.138;8.900;2023-03-03T06:52:44;1.10;99.90
19037;DHT22;9651;49.138;8.900;2023-03-03T06:56:46;1.10;99.90
19037;DHT22;9651;49.138;8.900;2023-03-03T07:00:53;1.20;99.90
19037;DHT22;9651;49.138;8.900;2023-03-03T07:04:57;1.30;99.90
19037;DHT22;9651;49.138;8.900;2023-03-03T07:08:59;1.40;99.90
19037;DHT22;9651;49.138;8.900;2023-03-03T07:13:15;1.60;99.90
19037;DHT22;9651;49.138;8.900;2023-03-03T07:17:19;1.90;99.90
19037;DHT22;9651;49.138;8.900;2023-03-03T07:21:27;2.20;99.90
19037;DHT22;9651;49.138;8.900;2023-03-03T07:25:33;2.50;99.90
19037;DHT22;9651;49.138;8.900;2023-03-03T07:29:36;2.80;99.90
19037;DHT22;9651;49.138;8.900;2023-03-03T07:33:43;3.10;99.90
19037;DHT22;9651;49.138;8.900;2023-03-03T07:37:47;3.50;99.90
19037;DHT22;9651;49.138;8.900;2023-03-03T07:41:49;3.90;99.90
19037;DHT22;9651;49.138;8.900;2023-03-03T07:45:51;4.30;99.90
19037;DHT22;9651;49.138;8.900;2023-03-03T07:49:55;4.70;99.90
19037;DHT22;9651;49.138;8.900;2023-03-03T07:54:17;4.80;99.90
19037;DHT22;9651;49.138;8.900;2023-03-03T07:58:35;5.10;99.90
19037;DHT22;9651;49.138;8.900;2023-03-03T08:02:39;5.40;99.90
19037;DHT22;9651;49.138;8.900;2023-03-03T08:06:47;5.70;99.90
19037;DHT22;9651;49.138;8.900;2023-03-03T08:10:52;6.00;99.90
19037;DHT22;9651;49.138;8.900;2023-03-03T08:14:55;6.40;99.90
19037;DHT22;9651;49.138;8.900;2023-03-03T08:19:00;6.90;99.90
19037;DHT22;9651;49.138;8.900;2023-03-03T08:23:03;7.30;99.90
19037;DHT22;9651;49.138;8.900;2023-03-03T08:27:06;7.40;99.90
19037;DHT22;9651;49.138;8.900;2023-03-03T08:31:11;7.80;99.90
19037;DHT22;9651;49.138;8.900;2023-03-03T08:35:13;8.20;99.90
19037;DHT22;9651;49.138;8.900;2023-03-03T08:39:15;8.30;99.90
19037;DHT22;9651;49.138;8.900;2023-03-03T08:43:18;8.50;99.90
19037;DHT22;9651;49.138;8.900;2023-03-03T08:47:22;8.70;99.90
19037;DHT22;9651;49.138;8.900;2023-03-03T08:51:24;8.90;99.90
19037;DHT22;9651;49.138;8.900;2023-03-03T08:55:26;9.00;99.90
19037;DHT22;9651;49.138;8.900;2023-03-03T08:59:29;9.20;99.90
19037;DHT22;9651;49.138;8.900;2023-03-03T09:03:31;9.40;99.90
19037;DHT22;9651;49.138;8.900;2023-03-03T09:07:33;9.60;99.90
19037;DHT22;9651;49.138;8.900;2023-03-03T09:11:35;9.70;99.90
19037;DHT22;9651;49.138;8.900;2023-03-03T09:15:39;10.00;99.90
19037;DHT22;9651;49.138;8.900;2023-03-03T09:19:41;10.50;99.90
19037;DHT22;9651;49.138;8.900;2023-03-03T09:23:48;10.80;99.90
19037;DHT22;9651;49.138;8.900;2023-03-03T09:27:52;11.10;99.90
19037;DHT22;9651;49.138;8.900;2023-03-03T09:31:57;10.70;99.90
19037;DHT22;9651;49.138;8.900;2023-03-03T09:36:11;10.90;99.90
19037;DHT22;9651;49.138;8.900;2023-03-03T09:40:32;11.00;99.90
19037;DHT22;9651;49.138;8.900;2023-03-03T09:49:13;11.70;99.90
19037;DHT22;9651;49.138;8.900;2023-03-03T09:53:27;12.30;99.90
19037;DHT22;9651;49.138;8.900;2023-03-03T09:57:43;12.50;99.90
19037;DHT22;9651;49.138;8.900;2023-03-03T10:02:06;12.90;99.90
19037;DHT22;9651;49.138;8.900;2023-03-03T10:06:19;13.50;99.90
19037;DHT22;9651;49.138;8.900;2023-03-03T10:10:32;13.20;99.90
19037;DHT22;9651;49.138;8.900;2023-03-03T10:14:55;13.00;99.70
19037;DHT22;9651;49.138;8.900;2023-03-03T10:19:02;12.30;99.90
19037;DHT22;9651;49.138;8.900;2023-03-03T10:23:17;12.80;99.90
19037;DHT22;9651;49.138;8.900;2023-03-03T10:27:29;13.50;99.40
19037;DHT22;9651;49.138;8.900;2023-03-03T10:31:43;14.30;98.70
19037;DHT22;9651;49.138;8.900;2023-03-03T10:36:19;14.50;97.00
19037;DHT22;9651;49.138;8.900;2023-03-03T10:40:28;15.20;96.10
19037;DHT22;9651;49.138;8.900;2023-03-03T10:44:59;15.20;95.50
19037;DHT22;9651;49.138;8.900;2023-03-03T10:49:19;15.50;94.90
19037;DHT22;9651;49.138;8.900;2023-03-03T10:53:28;16.10;94.30
19037;DHT22;9651;49.138;8.900;2023-03-03T10:57:36;16.60;93.50
19037;DHT22;9651;49.138;8.900;2023-03-03T11:01:46;17.60;92.10
19037;DHT22;9651;49.138;8.900;2023-03-03T11:05:51;17.40;91.40
19037;DHT22;9651;49.138;8.900;2023-03-03T11:10:02;18.00;90.40
19037;DHT22;9651;49.138;8.900;2023-03-03T11:14:11;18.60;87.90
19037;DHT22;9651;49.138;8.900;2023-03-03T11:18:24;19.00;85.90
19037;DHT22;9651;49.138;8.900;2023-03-03T11:22:38;17.70;84.70
19037;DHT22;9651;49.138;8.900;2023-03-03T11:31:12;19.80;81.10
19037;DHT22;9651;49.138;8.900;2023-03-03T11:35:26;20.60;78.00
19037;DHT22;9651;49.138;8.900;2023-03-03T11:39:29;21.00;74.10
19037;DHT22;9651;49.138;8.900;2023-03-03T11:43:35;20.80;74.50
19037;DHT22;9651;49.138;8.900;2023-03-03T11:47:46;21.80;71.90
19037;DHT22;9651;49.138;8.900;2023-03-03T11:51:59;21.80;69.00
19037;DHT22;9651;49.138;8.900;2023-03-03T11:56:12;22.30;67.50
19037;DHT22;9651;49.138;8.900;2023-03-03T12:00:25;22.30;65.00
19037;DHT22;9651;49.138;8.900;2023-03-03T12:04:33;21.30;65.60
19037;DHT22;9651;49.138;8.900;2023-03-03T12:08:50;20.70;69.00
19037;DHT22;9651;49.138;8.900;2023-03-03T12:13:01;22.10;66.90
19037;DHT22;9651;49.138;8.900;2023-03-03T12:17:09;22.70;64.10
19037;DHT22;9651;49.138;8.900;2023-03-03T12:21:26;23.30;62.40
19037;DHT22;9651;49.138;8.900;2023-03-03T12:25:34;23.20;61.30
19037;DHT22;9651;49.138;8.900;2023-03-03T12:29:41;23.20;60.70
19037;DHT22;9651;49.138;8.900;2023-03-03T12:33:52;23.00;60.00
19037;DHT22;9651;49.138;8.900;2023-03-03T12:38:05;23.60;60.10
19037;DHT22;9651;49.138;8.900;2023-03-03T12:42:18;23.60;59.20
19037;DHT22;9651;49.138;8.900;2023-03-03T12:46:32;23.10;59.00
19037;DHT22;9651;49.138;8.900;2023-03-03T12:50:46;21.90;60.00
19037;DHT22;9651;49.138;8.900;2023-03-03T12:54:59;20.10;61.70
19037;DHT22;9651;49.138;8.900;2023-03-03T12:59:09;18.90;64.00
19037;DHT22;9651;49.138;8.900;2023-03-03T13:03:20;17.50;64.90
19037;DHT22;9651;49.138;8.900;2023-03-03T13:07:27;16.60;67.30
19037;DHT22;9651;49.138;8.900;2023-03-03T13:11:44;16.00;69.00
19037;DHT22;9651;49.138;8.900;2023-03-03T13:15:57;15.80;70.10
19037;DHT22;9651;49.138;8.900;2023-03-03T13:20:02;15.30;70.20
19037;DHT22;9651;49.138;8.900;2023-03-03T13:24:14;15.00;71.70
19037;DHT22;9651;49.138;8.900;2023-03-03T13:28:24;14.60;72.20
19037;DHT22;9651;49.138;8.900;2023-03-03T13:32:35;13.80;72.60
19037;DHT22;9651;49.138;8.900;2023-03-03T13:36:43;13.30;75.80
19037;DHT22;9651;49.138;8.900;2023-03-03T13:40:56;13.30;77.10
19037;DHT22;9651;49.138;8.900;2023-03-03T13:45:05;13.60;78.10
19037;DHT22;9651;49.138;8.900;2023-03-03T13:49:39;13.50;77.50
19037;DHT22;9651;49.138;8.900;2023-03-03T13:53:50;13.40;77.90
19037;DHT22;9651;49.138;8.900;2023-03-03T13:57:58;13.30;79.00
19037;DHT22;9651;49.138;8.900;2023-03-03T14:02:15;13.20;79.30
19037;DHT22;9651;49.138;8.900;2023-03-03T14:06:23;13.20;80.30
19037;DHT22;9651;49.138;8.900;2023-03-03T14:10:30;13.10;80.80
19037;DHT22;9651;49.138;8.900;2023-03-03T14:14:42;12.90;80.70
19037;DHT22;9651;49.138;8.900;2023-03-03T14:18:54;12.90;81.50
19037;DHT22;9651;49.138;8.900;2023-03-03T14:22:58;12.80;81.60
19037;DHT22;9651;49.138;8.900;2023-03-03T14:27:22;12.70;82.70
19037;DHT22;9651;49.138;8.900;2023-03-03T14:31:26;12.70;83.90
19037;DHT22;9651;49.138;8.900;2023-03-03T14:35:34;12.70;83.70
19037;DHT22;9651;49.138;8.900;2023-03-03T14:39:38;12.80;83.90
19037;DHT22;9651;49.138;8.900;2023-03-03T14:43:42;12.80;84.10
19037;DHT22;9651;49.138;8.900;2023-03-03T14:47:45;12.60;85.50
19037;DHT22;9651;49.138;8.900;2023-03-03T14:51:49;12.60;86.10
19037;DHT22;9651;49.138;8.900;2023-03-03T14:55:52;12.60;86.60
19037;DHT22;9651;49.138;8.900;2023-03-03T14:59:56;12.60;87.20
19037;DHT22;9651;49.138;8.900;2023-03-03T15:04:00;12.40;87.70
19037;DHT22;9651;49.138;8.900;2023-03-03T15:08:13;12.30;88.40
19037;DHT22;9651;49.138;8.900;2023-03-03T15:12:18;12.30;89.70
19037;DHT22;9651;49.138;8.900;2023-03-03T15:16:22;12.30;90.50
19037;DHT22;9651;49.138;8.900;2023-03-03T15:20:38;12.30;90.50
19037;DHT22;9651;49.138;8.900;2023-03-03T15:24:50;12.20;90.50
19037;DHT22;9651;49.138;8.900;2023-03-03T15:29:00;12.10;90.60
19037;DHT22;9651;49.138;8.900;2023-03-03T15:33:12;12.00;90.90
19037;DHT22;9651;49.138;8.900;2023-03-03T15:37:26;11.90;91.30
19037;DHT22;9651;49.138;8.900;2023-03-03T15:41:37;11.80;91.50
19037;DHT22;9651;49.138;8.900;2023-03-03T15:45:47;11.70;91.70
19037;DHT22;9651;49.138;8.900;2023-03-03T15:54:31;11.60;92.20
19037;DHT22;9651;49.138;8.900;2023-03-03T15:59:09;11.50;92.50
19037;DHT22;9651;49.138;8.900;2023-03-03T16:03:19;11.50;92.90
19037;DHT22;9651;49.138;8.900;2023-03-03T16:07:31;11.40;93.00
19037;DHT22;9651;49.138;8.900;2023-03-03T16:11:41;11.30;93.20
19037;DHT22;9651;49.138;8.900;2023-03-03T16:15:49;11.20;93.70
19037;DHT22;9651;49.138;8.900;2023-03-03T16:20:02;11.10;94.00
19037;DHT22;9651;49.138;8.900;2023-03-03T16:24:20;11.00;94.40
19037;DHT22;9651;49.138;8.900;2023-03-03T16:28:29;10.90;94.70
19037;DHT22;9651;49.138;8.900;2023-03-03T16:32:39;10.70;94.90
19037;DHT22;9651;49.138;8.900;2023-03-03T16:36:53;10.60;95.20
19037;DHT22;9651;49.138;8.900;2023-03-03T16:40:59;10.50;95.60
19037;DHT22;9651;49.138;8.900;2023-03-03T16:45:14;10.30;96.10
19037;DHT22;9651;49.138;8.900;2023-03-03T16:49:23;10.20;96.50
19037;DHT22;9651;49.138;8.900;2023-03-03T16:58:02;9.90;97.10
19037;DHT22;9651;49.138;8.900;2023-03-03T17:02:18;9.70;97.50
19037;DHT22;9651;49.138;8.900;2023-03-03T17:06:32;9.60;98.40
19037;DHT22;9651;49.138;8.900;2023-03-03T17:10:39;9.30;99.10
19037;DHT22;9651;49.138;8.900;2023-03-03T17:15:00;9.00;99.70
19037;DHT22;9651;49.138;8.900;2023-03-03T17:19:14;8.70;99.90
19037;DHT22;9651;49.138;8.900;2023-03-03T17:23:38;8.60;99.90
19037;DHT22;9651;49.138;8.900;2023-03-03T17:27:55;8.50;99.90
19037;DHT22;9651;49.138;8.900;2023-03-03T17:32:09;8.20;99.90
19037;DHT22;9651;49.138;8.900;2023-03-03T17:36:28;8.10;99.90
19037;DHT22;9651;49.138;8.900;2023-03-03T17:40:59;7.90;99.90
19037;DHT22;9651;49.138;8.900;2023-03-03T17:45:07;7.60;99.90
19037;DHT22;9651;49.138;8.900;2023-03-03T17:49:36;7.50;99.90
19037;DHT22;9651;49.138;8.900;2023-03-03T17:53:50;7.30;99.90
19037;DHT22;9651;49.138;8.900;2023-03-03T18:02:38;7.20;99.90
19037;DHT22;9651;49.138;8.900;2023-03-03T18:07:06;7.00;99.90
19037;DHT22;9651;49.138;8.900;2023-03-03T18:11:22;6.80;99.90
19037;DHT22;9651;49.138;8.900;2023-03-03T18:15:36;6.70;99.90
19037;DHT22;9651;49.138;8.900;2023-03-03T18:19:52;6.60;99.90
19037;DHT22;9651;49.138;8.900;2023-03-03T18:24:27;6.50;99.90
19037;DHT22;9651;49.138;8.900;2023-03-03T18:28:44;6.30;99.90
19037;DHT22;9651;49.138;8.900;2023-03-03T18:33:04;6.20;99.90
19037;DHT22;9651;49.138;8.900;2023-03-03T18:37:09;6.10;99.90
19037;DHT22;9651;49.138;8.900;2023-03-03T18:41:21;6.00;99.90
19037;DHT22;9651;49.138;8.900;2023-03-03T18:45:46;5.90;99.90
19037;DHT22;9651;49.138;8.900;2023-03-03T18:49:54;5.70;99.90
19037;DHT22;9651;49.138;8.900;2023-03-03T18:54:00;5.60;99.90
19037;DHT22;9651;49.138;8.900;2023-03-03T19:02:35;5.40;99.90
19037;DHT22;9651;49.138;8.900;2023-03-03T19:07:18;5.30;99.90
19037;DHT22;9651;49.138;8.900;2023-03-03T19:11:34;5.20;99.90
19037;DHT22;9651;49.138;8.900;2023-03-03T19:15:55;5.10;99.90
19037;DHT22;9651;49.138;8.900;2023-03-03T19:20:00;4.90;99.90
19037;DHT22;9651;49.138;8.900;2023-03-03T19:24:08;4.80;99.90
19037;DHT22;9651;49.138;8.900;2023-03-03T19:28:32;4.70;99.90
19037;DHT22;9651;49.138;8.900;2023-03-03T19:32:59;4.60;99.90
19037;DHT22;9651;49.138;8.900;2023-03-03T19:37:26;4.40;99.90
19037;DHT22;9651;49.138;8.900;2023-03-03T19:41:44;4.40;99.90
19037;DHT22;9651;49.138;8.900;2023-03-03T19:45:57;4.40;99.90
19037;DHT22;9651;49.138;8.900;2023-03-03T19:50:16;4.30;99.90
19037;DHT22;9651;49.138;8.900;2023-03-03T19:54:30;4.20;99.90
19037;DHT22;9651;49.138;8.900;2023-03-03T19:58:46;4.10;99.90
19037;DHT22;9651;49.138;8.900;2023-03-03T20:03:05;4.10;99.90
19037;DHT22;9651;49.138;8.900;2023-03-03T20:07:26;4.00;99.90
19037;DHT22;9651;49.138;8.900;2023-03-03T20:11:39;3.90;99.90
19037;DHT22;9651;49.138;8.900;2023-03-03T20:15:53;3.80;99.90
19037;DHT22;9651;49.138;8.900;2023-03-03T20:20:04;3.80;99.90
19037;DHT22;9651;49.138;8.900;2023-03-03T20:24:28;3.70;99.90
19037;DHT22;9651;49.138;8.900;2023-03-03T20:29:05;3.60;99.90
19037;DHT22;9651;49.138;8.900;2023-03-03T20:33:27;3.40;99.90
19037;DHT22;9651;49.138;8.900;2023-03-03T20:37:38;3.40;99.90
19037;DHT22;9651;49.138;8.900;2023-03-03T20:41:54;3.30;99.90
19037;DHT22;9651;49.138;8.900;2023-03-03T20:46:06;3.20;99.90
19037;DHT22;9651;49.138;8.900;2023-03-03T20:50:20;3.20;99.90
19037;DHT22;9651;49.138;8.900;2023-03-03T20:54:30;3.20;99.90
19037;DHT22;9651;49.138;8.900;2023-03-03T20:58:47;3.10;99.90
19037;DHT22;9651;49.138;8.900;2023-03-03T21:02:58;3.00;99.90
19037;DHT22;9651;49.138;8.900;2023-03-03T21:07:05;2.80;99.90
19037;DHT22;9651;49.138;8.900;2023-03-03T21:11:07;2.70;99.90
19037;DHT22;9651;49.138;8.900;2023-03-03T21:15:22;2.50;99.90
19037;DHT22;9651;49.138;8.900;2023-03-03T21:19:27;2.50;99.90
19037;DHT22;9651;49.138;8.900;2023-03-03T21:23:30;2.50;99.90
19037;DHT22;9651;49.138;8.900;2023-03-03T21:27:33;2.40;99.90
19037;DHT22;9651;49.138;8.900;2023-03-03T21:31:43;2.40;99.90
19037;DHT22;9651;49.138;8.900;2023-03-03T21:35:56;2.30;99.90
19037;DHT22;9651;49.138;8.900;2023-03-03T21:40:15;2.30;99.90
19037;DHT22;9651;49.138;8.900;2023-03-03T21:44:33;2.30;99.90
19037;DHT22;9651;49.138;8.900;2023-03-03T21:48:39;2.30;99.90
19037;DHT22;9651;49.138;8.900;2023-03-03T21:52:42;2.10;99.90
19037;DHT22;9651;49.138;8.900;2023-03-03T21:56:45;1.90;99.90
19037;DHT22;9651;49.138;8.900;2023-03-03T22:00:47;1.80;99.90
19037;DHT22;9651;49.138;8.900;2023-03-03T22:04:49;1.80;99.90
19037;DHT22;9651;49.138;8.900;2023-03-03T22:08:51;1.80;99.90
19037;DHT22;9651;49.138;8.900;2023-03-03T22:12:54;1.80;99.90
19037;DHT22;9651;49.138;8.900;2023-03-03T22:16:56;1.70;99.90
19037;DHT22;9651;49.138;8.900;2023-03-03T22:20:58;1.70;99.90
19037;DHT22;9651;49.138;8.900;2023-03-03T22:25:00;1.70;99.90
19037;DHT22;9651;49.138;8.900;2023-03-03T22:29:04;1.70;99.90
19037;DHT22;9651;49.138;8.900;2023-03-03T22:33:07;1.70;99.90
19037;DHT22;9651;49.138;8.900;2023-03-03T22:37:08;1.60;99.90
19037;DHT22;9651;49.138;8.900;2023-03-03T22:41:11;1.50;99.90
19037;DHT22;9651;49.138;8.900;2023-03-03T22:45:14;1.50;99.90
19037;DHT22;9651;49.138;8.900;2023-03-03T22:49:16;1.40;99.90
19037;DHT22;9651;49.138;8.900;2023-03-03T22:53:19;1.40;99.90
19037;DHT22;9651;49.138;8.900;2023-03-03T22:57:21;1.40;99.90
19037;DHT22;9651;49.138;8.900;2023-03-03T23:01:24;1.40;99.90
19037;DHT22;9651;49.138;8.900;2023-03-03T23:05:27;1.30;99.90
19037;DHT22;9651;49.138;8.900;2023-03-03T23:09:28;1.30;99.90
19037;DHT22;9651;49.138;8.900;2023-03-03T23:13:30;1.30;99.90
19037;DHT22;9651;49.138;8.900;2023-03-03T23:17:34;1.20;99.90
19037;DHT22;9651;49.138;8.900;2023-03-03T23:21:36;1.10;99.90
19037;DHT22;9651;49.138;8.900;2023-03-03T23:25:38;1.00;99.90
19037;DHT22;9651;49.138;8.900;2023-03-03T23:29:40;0.80;99.90
19037;DHT22;9651;49.138;8.900;2023-03-03T23:33:43;0.70;99.90
19037;DHT22;9651;49.138;8.900;2023-03-03T23:37:45;0.70;99.90
19037;DHT22;9651;49.138;8.900;2023-03-03T23:41:47;0.70;99.90
19037;DHT22;9651;49.138;8.900;2023-03-03T23:45:49;0.70;99.90
19037;DHT22;9651;49.138;8.900;2023-03-03T23:49:52;0.70;99.90
19037;DHT22;9651;49.138;8.900;2023-03-03T23:53:54;0.60;99.90
19037;DHT22;9651;49.138;8.900;2023-03-03T23:57:56;0.60;99.90
